sensor_id;sensor_type;location;lat;lon;timestamp;P1;durP1;ratioP1;P2;durP2;ratioP2
4694;SDS011;2361;49.540;8.390;2023-08-20T00:01:19;5.33;;;4.63;;
4694;SDS011;2361;49.540;8.390;2023-08-20T00:03:51;5.13;;;4.43;;
4694;SDS011;2361;49.540;8.390;2023-08-20T00:06:19;6.37;;;4.10;;
4694;SDS011;2361;49.540;8.390;2023-08-20T00:08:47;6.80;;;4.30;;
4694;SDS011;2361;49.540;8.390;2023-08-20T00:11:15;7.43;;;4.40;;
4694;SDS011;2361;49.540;8.390;2023-08-20T00:13:42;4.40;;;4.00;;
4694;SDS011;2361;49.540;8.390;2023-08-20T00:16:09;5.03;;;4.53;;
4694;SDS011;2361;49.540;8.390;2023-08-20T00:18:37;5.60;;;4.90;;
4694;SDS011;2361;49.540;8.390;2023-08-20T00:21:05;5.10;;;4.30;;
4694;SDS011;2361;49.540;8.390;2023-08-20T00:23:34;5.20;;;4.30;;
4694;SDS011;2361;49.540;8.390;2023-08-20T00:26:02;4.87;;;4.17;;
4694;SDS011;2361;49.540;8.390;2023-08-20T00:28:30;4.80;;;4.20;;
4694;SDS011;2361;49.540;8.390;2023-08-20T00:30:59;8.90;;;4.87;;
4694;SDS011;2361;49.540;8.390;2023-08-20T00:33:27;4.77;;;4.13;;
4694;SDS011;2361;49.540;8.390;2023-08-20T00:35:54;7.73;;;4.60;;
4694;SDS011;2361;49.540;8.390;2023-08-20T00:38:21;4.73;;;4.20;;
4694;SDS011;2361;49.540;8.390;2023-08-20T00:40:48;4.93;;;4.27;;
4694;SDS011;2361;49.540;8.390;2023-08-20T00:43:15;3.90;;;3.50;;
4694;SDS011;2361;49.540;8.390;2023-08-20T00:45:42;3.70;;;3.40;;
4694;SDS011;2361;49.540;8.390;2023-08-20T00:48:10;4.83;;;4.30;;
4694;SDS011;2361;49.540;8.390;2023-08-20T00:50:38;5.33;;;4.83;;
4694;SDS011;2361;49.540;8.390;2023-08-20T00:53:07;5.20;;;4.20;;
4694;SDS011;2361;49.540;8.390;2023-08-20T00:55:36;4.70;;;4.23;;
4694;SDS011;2361;49.540;8.390;2023-08-20T00:58:03;4.87;;;4.40;;
4694;SDS011;2361;49.540;8.390;2023-08-20T01:00:31;5.80;;;5.20;;
4694;SDS011;2361;49.540;8.390;2023-08-20T01:02:58;6.07;;;4.40;;
4694;SDS011;2361;49.540;8.390;2023-08-20T01:05:25;4.83;;;4.33;;
4694;SDS011;2361;49.540;8.390;2023-08-20T01:13:15;4.70;;;4.30;;
4694;SDS011;2361;49.540;8.390;2023-08-20T01:15:43;5.97;;;4.60;;
4694;SDS011;2361;49.540;8.390;2023-08-20T01:18:09;5.00;;;4.60;;
4694;SDS011;2361;49.540;8.390;2023-08-20T01:20:39;7.00;;;4.30;;
4694;SDS011;2361;49.540;8.390;2023-08-20T01:23:36;4.63;;;4.17;;
4694;SDS011;2361;49.540;8.390;2023-08-20T01:26:21;4.20;;;3.80;;
4694;SDS011;2361;49.540;8.390;2023-08-20T01:29:16;5.30;;;4.00;;
4694;SDS011;2361;49.540;8.390;2023-08-20T01:31:43;4.20;;;3.60;;
4694;SDS011;2361;49.540;8.390;2023-08-20T01:34:11;6.27;;;3.70;;
4694;SDS011;2361;49.540;8.390;2023-08-20T01:36:39;8.03;;;5.03;;
4694;SDS011;2361;49.540;8.390;2023-08-20T01:39:06;5.67;;;4.17;;
4694;SDS011;2361;49.540;8.390;2023-08-20T01:41:34;4.40;;;4.00;;
4694;SDS011;2361;49.540;8.390;2023-08-20T01:44:01;4.33;;;3.90;;
4694;SDS011;2361;49.540;8.390;2023-08-20T01:46:28;4.97;;;4.10;;
4694;SDS011;2361;49.540;8.390;2023-08-20T01:48:55;5.10;;;4.13;;
4694;SDS011;2361;49.540;8.390;2023-08-20T01:51:22;5.07;;;4.40;;
4694;SDS011;2361;49.540;8.390;2023-08-20T01:53:49;4.60;;;4.13;;
4694;SDS011;2361;49.540;8.390;2023-08-20T01:56:16;3.77;;;3.47;;
4694;SDS011;2361;49.540;8.390;2023-08-20T01:58:43;4.63;;;3.83;;
4694;SDS011;2361;49.540;8.390;2023-08-20T02:01:10;4.60;;;3.73;;
4694;SDS011;2361;49.540;8.390;2023-08-20T02:03:37;6.30;;;4.70;;
4694;SDS011;2361;49.540;8.390;2023-08-20T02:06:04;4.77;;;4.10;;
4694;SDS011;2361;49.540;8.390;2023-08-20T02:08:31;4.00;;;3.60;;
4694;SDS011;2361;49.540;8.390;2023-08-20T02:11:02;4.07;;;3.77;;
4694;SDS011;2361;49.540;8.390;2023-08-20T02:13:30;4.00;;;3.70;;
4694;SDS011;2361;49.540;8.390;2023-08-20T02:16:01;3.87;;;3.57;;
4694;SDS011;2361;49.540;8.390;2023-08-20T02:18:30;5.00;;;4.00;;
4694;SDS011;2361;49.540;8.390;2023-08-20T02:20:57;5.57;;;4.20;;
4694;SDS011;2361;49.540;8.390;2023-08-20T02:23:24;4.40;;;3.57;;
4694;SDS011;2361;49.540;8.390;2023-08-20T02:25:51;3.90;;;3.50;;
4694;SDS011;2361;49.540;8.390;2023-08-20T02:28:18;4.57;;;3.60;;
4694;SDS011;2361;49.540;8.390;2023-08-20T02:30:45;3.97;;;3.57;;
4694;SDS011;2361;49.540;8.390;2023-08-20T02:33:13;4.37;;;3.50;;
4694;SDS011;2361;49.540;8.390;2023-08-20T02:35:40;4.77;;;4.13;;
4694;SDS011;2361;49.540;8.390;2023-08-20T02:38:07;4.57;;;4.17;;
4694;SDS011;2361;49.540;8.390;2023-08-20T02:40:40;4.30;;;3.87;;
4694;SDS011;2361;49.540;8.390;2023-08-20T02:43:08;4.90;;;4.37;;
4694;SDS011;2361;49.540;8.390;2023-08-20T02:45:41;5.10;;;4.60;;
4694;SDS011;2361;49.540;8.390;2023-08-20T02:48:09;4.77;;;4.10;;
4694;SDS011;2361;49.540;8.390;2023-08-20T02:50:37;5.10;;;4.60;;
4694;SDS011;2361;49.540;8.390;2023-08-20T02:53:04;5.13;;;4.50;;
4694;SDS011;2361;49.540;8.390;2023-08-20T02:55:31;4.50;;;4.10;;
4694;SDS011;2361;49.540;8.390;2023-08-20T02:57:59;9.70;;;5.20;;
4694;SDS011;2361;49.540;8.390;2023-08-20T03:00:26;8.60;;;5.83;;
4694;SDS011;2361;49.540;8.390;2023-08-20T03:02:54;5.23;;;4.57;;
4694;SDS011;2361;49.540;8.390;2023-08-20T03:05:21;5.97;;;5.37;;
4694;SDS011;2361;49.540;8.390;2023-08-20T03:07:48;4.60;;;4.20;;
4694;SDS011;2361;49.540;8.390;2023-08-20T03:10:15;6.53;;;4.80;;
4694;SDS011;2361;49.540;8.390;2023-08-20T03:12:43;5.90;;;4.33;;
4694;SDS011;2361;49.540;8.390;2023-08-20T03:15:10;8.03;;;5.30;;
4694;SDS011;2361;49.540;8.390;2023-08-20T03:17:37;6.63;;;5.57;;
4694;SDS011;2361;49.540;8.390;2023-08-20T03:20:05;7.33;;;5.70;;
4694;SDS011;2361;49.540;8.390;2023-08-20T03:22:33;5.90;;;5.10;;
4694;SDS011;2361;49.540;8.390;2023-08-20T03:25:02;7.73;;;5.33;;
4694;SDS011;2361;49.540;8.390;2023-08-20T03:27:30;6.70;;;4.70;;
4694;SDS011;2361;49.540;8.390;2023-08-20T03:29:57;6.10;;;5.00;;
4694;SDS011;2361;49.540;8.390;2023-08-20T03:32:24;8.43;;;5.57;;
4694;SDS011;2361;49.540;8.390;2023-08-20T03:34:51;7.40;;;4.93;;
4694;SDS011;2361;49.540;8.390;2023-08-20T03:37:20;5.47;;;4.87;;
4694;SDS011;2361;49.540;8.390;2023-08-20T03:39:48;6.57;;;5.47;;
4694;SDS011;2361;49.540;8.390;2023-08-20T03:42:15;7.23;;;5.70;;
4694;SDS011;2361;49.540;8.390;2023-08-20T03:44:42;5.70;;;4.90;;
4694;SDS011;2361;49.540;8.390;2023-08-20T03:47:09;5.03;;;4.33;;
4694;SDS011;2361;49.540;8.390;2023-08-20T03:49:37;6.17;;;4.67;;
4694;SDS011;2361;49.540;8.390;2023-08-20T03:52:04;7.33;;;5.13;;
4694;SDS011;2361;49.540;8.390;2023-08-20T03:54:33;4.93;;;4.30;;
4694;SDS011;2361;49.540;8.390;2023-08-20T03:57:01;4.83;;;4.40;;
4694;SDS011;2361;49.540;8.390;2023-08-20T03:59:28;5.20;;;4.43;;
4694;SDS011;2361;49.540;8.390;2023-08-20T04:01:56;5.40;;;4.57;;
4694;SDS011;2361;49.540;8.390;2023-08-20T04:04:23;5.13;;;4.63;;
4694;SDS011;2361;49.540;8.390;2023-08-20T04:06:50;5.20;;;4.70;;
4694;SDS011;2361;49.540;8.390;2023-08-20T04:09:17;5.67;;;4.50;;
4694;SDS011;2361;49.540;8.390;2023-08-20T04:11:45;5.93;;;4.43;;
4694;SDS011;2361;49.540;8.390;2023-08-20T04:14:11;6.17;;;4.70;;
4694;SDS011;2361;49.540;8.390;2023-08-20T04:16:38;5.23;;;4.73;;
4694;SDS011;2361;49.540;8.390;2023-08-20T04:19:05;5.87;;;4.80;;
4694;SDS011;2361;49.540;8.390;2023-08-20T04:21:32;5.77;;;4.30;;
4694;SDS011;2361;49.540;8.390;2023-08-20T04:23:59;5.10;;;4.37;;
4694;SDS011;2361;49.540;8.390;2023-08-20T04:26:26;5.07;;;4.60;;
4694;SDS011;2361;49.540;8.390;2023-08-20T04:28:53;6.67;;;4.80;;
4694;SDS011;2361;49.540;8.390;2023-08-20T04:31:20;6.00;;;5.20;;
4694;SDS011;2361;49.540;8.390;2023-08-20T04:33:47;4.90;;;4.40;;
4694;SDS011;2361;49.540;8.390;2023-08-20T04:36:14;9.27;;;5.83;;
4694;SDS011;2361;49.540;8.390;2023-08-20T04:38:41;5.93;;;5.30;;
4694;SDS011;2361;49.540;8.390;2023-08-20T04:41:08;7.53;;;5.00;;
4694;SDS011;2361;49.540;8.390;2023-08-20T04:43:35;4.80;;;4.27;;
4694;SDS011;2361;49.540;8.390;2023-08-20T04:46:02;5.73;;;4.97;;
4694;SDS011;2361;49.540;8.390;2023-08-20T04:48:28;6.23;;;5.23;;
4694;SDS011;2361;49.540;8.390;2023-08-20T04:50:55;4.70;;;4.00;;
4694;SDS011;2361;49.540;8.390;2023-08-20T04:53:23;7.90;;;4.90;;
4694;SDS011;2361;49.540;8.390;2023-08-20T04:55:49;5.80;;;4.70;;
4694;SDS011;2361;49.540;8.390;2023-08-20T04:58:16;5.50;;;4.67;;
4694;SDS011;2361;49.540;8.390;2023-08-20T05:00:43;6.60;;;5.90;;
4694;SDS011;2361;49.540;8.390;2023-08-20T05:03:10;6.60;;;5.63;;
4694;SDS011;2361;49.540;8.390;2023-08-20T05:05:37;7.40;;;5.97;;
4694;SDS011;2361;49.540;8.390;2023-08-20T05:08:04;10.20;;;5.83;;
4694;SDS011;2361;49.540;8.390;2023-08-20T05:10:32;5.63;;;4.90;;
4694;SDS011;2361;49.540;8.390;2023-08-20T05:12:59;6.67;;;5.27;;
4694;SDS011;2361;49.540;8.390;2023-08-20T05:15:26;5.87;;;5.13;;
4694;SDS011;2361;49.540;8.390;2023-08-20T05:17:53;9.27;;;5.20;;
4694;SDS011;2361;49.540;8.390;2023-08-20T05:20:20;5.67;;;5.07;;
4694;SDS011;2361;49.540;8.390;2023-08-20T05:22:47;5.93;;;4.93;;
4694;SDS011;2361;49.540;8.390;2023-08-20T05:25:14;5.17;;;4.73;;
4694;SDS011;2361;49.540;8.390;2023-08-20T05:27:41;5.20;;;4.70;;
4694;SDS011;2361;49.540;8.390;2023-08-20T05:30:08;5.50;;;4.70;;
4694;SDS011;2361;49.540;8.390;2023-08-20T05:32:35;12.03;;;5.70;;
4694;SDS011;2361;49.540;8.390;2023-08-20T05:35:03;5.43;;;4.93;;
4694;SDS011;2361;49.540;8.390;2023-08-20T05:37:30;8.67;;;5.30;;
4694;SDS011;2361;49.540;8.390;2023-08-20T05:39:57;7.60;;;5.17;;
4694;SDS011;2361;49.540;8.390;2023-08-20T05:42:24;7.83;;;5.83;;
4694;SDS011;2361;49.540;8.390;2023-08-20T05:44:51;8.40;;;6.30;;
4694;SDS011;2361;49.540;8.390;2023-08-20T05:47:18;5.53;;;5.00;;
4694;SDS011;2361;49.540;8.390;2023-08-20T05:49:45;6.37;;;4.97;;
4694;SDS011;2361;49.540;8.390;2023-08-20T05:52:11;7.40;;;5.43;;
4694;SDS011;2361;49.540;8.390;2023-08-20T05:54:38;14.20;;;7.00;;
4694;SDS011;2361;49.540;8.390;2023-08-20T05:57:05;16.00;;;7.83;;
4694;SDS011;2361;49.540;8.390;2023-08-20T05:59:32;13.30;;;8.27;;
4694;SDS011;2361;49.540;8.390;2023-08-20T06:02:00;9.10;;;6.10;;
4694;SDS011;2361;49.540;8.390;2023-08-20T06:04:28;7.87;;;6.03;;
4694;SDS011;2361;49.540;8.390;2023-08-20T06:06:56;6.90;;;5.10;;
4694;SDS011;2361;49.540;8.390;2023-08-20T06:09:23;9.43;;;6.53;;
4694;SDS011;2361;49.540;8.390;2023-08-20T06:11:50;7.93;;;5.27;;
4694;SDS011;2361;49.540;8.390;2023-08-20T06:14:17;6.20;;;5.60;;
4694;SDS011;2361;49.540;8.390;2023-08-20T06:16:44;5.97;;;5.13;;
4694;SDS011;2361;49.540;8.390;2023-08-20T06:19:11;5.30;;;4.80;;
4694;SDS011;2361;49.540;8.390;2023-08-20T06:21:38;6.10;;;4.63;;
4694;SDS011;2361;49.540;8.390;2023-08-20T06:24:05;4.70;;;4.30;;
4694;SDS011;2361;49.540;8.390;2023-08-20T06:26:32;5.33;;;4.83;;
4694;SDS011;2361;49.540;8.390;2023-08-20T06:28:59;4.90;;;4.50;;
4694;SDS011;2361;49.540;8.390;2023-08-20T06:31:26;4.33;;;4.03;;
4694;SDS011;2361;49.540;8.390;2023-08-20T06:33:53;6.57;;;4.80;;
4694;SDS011;2361;49.540;8.390;2023-08-20T06:36:20;5.00;;;4.50;;
4694;SDS011;2361;49.540;8.390;2023-08-20T06:38:47;4.60;;;4.30;;
4694;SDS011;2361;49.540;8.390;2023-08-20T06:41:14;5.40;;;4.90;;
4694;SDS011;2361;49.540;8.390;2023-08-20T06:43:41;7.50;;;5.40;;
4694;SDS011;2361;49.540;8.390;2023-08-20T06:46:08;5.47;;;4.67;;
4694;SDS011;2361;49.540;8.390;2023-08-20T06:48:35;5.53;;;5.00;;
4694;SDS011;2361;49.540;8.390;2023-08-20T06:51:12;7.50;;;5.10;;
4694;SDS011;2361;49.540;8.390;2023-08-20T06:53:40;5.50;;;5.00;;
4694;SDS011;2361;49.540;8.390;2023-08-20T06:56:08;5.27;;;4.70;;
4694;SDS011;2361;49.540;8.390;2023-08-20T06:58:35;4.70;;;4.30;;
4694;SDS011;2361;49.540;8.390;2023-08-20T07:01:02;5.77;;;5.20;;
4694;SDS011;2361;49.540;8.390;2023-08-20T07:03:39;6.10;;;5.60;;
4694;SDS011;2361;49.540;8.390;2023-08-20T07:06:08;6.20;;;4.27;;
4694;SDS011;2361;49.540;8.390;2023-08-20T07:08:37;4.97;;;4.40;;
4694;SDS011;2361;49.540;8.390;2023-08-20T07:11:07;5.30;;;4.90;;
4694;SDS011;2361;49.540;8.390;2023-08-20T07:13:34;5.20;;;4.63;;
4694;SDS011;2361;49.540;8.390;2023-08-20T07:16:01;5.50;;;5.00;;
4694;SDS011;2361;49.540;8.390;2023-08-20T07:18:29;5.30;;;4.80;;
4694;SDS011;2361;49.540;8.390;2023-08-20T07:20:56;4.57;;;4.17;;
4694;SDS011;2361;49.540;8.390;2023-08-20T07:23:23;9.53;;;4.60;;
4694;SDS011;2361;49.540;8.390;2023-08-20T07:25:50;4.77;;;4.47;;
4694;SDS011;2361;49.540;8.390;2023-08-20T07:28:20;7.43;;;5.03;;
4694;SDS011;2361;49.540;8.390;2023-08-20T07:31:07;5.23;;;4.83;;
4694;SDS011;2361;49.540;8.390;2023-08-20T07:33:34;4.67;;;4.27;;
4694;SDS011;2361;49.540;8.390;2023-08-20T07:36:01;3.50;;;3.30;;
4694;SDS011;2361;49.540;8.390;2023-08-20T07:38:28;4.87;;;4.47;;
4694;SDS011;2361;49.540;8.390;2023-08-20T07:40:54;5.23;;;4.80;;
4694;SDS011;2361;49.540;8.390;2023-08-20T07:43:21;5.70;;;5.20;;
4694;SDS011;2361;49.540;8.390;2023-08-20T07:45:50;5.20;;;4.20;;
4694;SDS011;2361;49.540;8.390;2023-08-20T07:48:17;4.90;;;4.60;;
4694;SDS011;2361;49.540;8.390;2023-08-20T07:50:44;5.37;;;4.87;;
4694;SDS011;2361;49.540;8.390;2023-08-20T07:53:11;5.47;;;5.07;;
4694;SDS011;2361;49.540;8.390;2023-08-20T07:55:38;5.27;;;4.87;;
4694;SDS011;2361;49.540;8.390;2023-08-20T07:58:05;5.30;;;4.90;;
4694;SDS011;2361;49.540;8.390;2023-08-20T08:00:32;6.17;;;5.37;;
4694;SDS011;2361;49.540;8.390;2023-08-20T08:02:59;4.70;;;4.30;;
4694;SDS011;2361;49.540;8.390;2023-08-20T08:05:26;4.37;;;4.07;;
4694;SDS011;2361;49.540;8.390;2023-08-20T08:07:53;5.17;;;4.77;;
4694;SDS011;2361;49.540;8.390;2023-08-20T08:10:21;5.30;;;4.90;;
4694;SDS011;2361;49.540;8.390;2023-08-20T08:12:48;5.10;;;4.60;;
4694;SDS011;2361;49.540;8.390;2023-08-20T08:15:15;5.07;;;4.67;;
4694;SDS011;2361;49.540;8.390;2023-08-20T08:17:41;4.77;;;4.43;;
4694;SDS011;2361;49.540;8.390;2023-08-20T08:20:08;7.50;;;5.53;;
4694;SDS011;2361;49.540;8.390;2023-08-20T08:22:35;5.13;;;4.63;;
4694;SDS011;2361;49.540;8.390;2023-08-20T08:25:02;5.40;;;4.90;;
4694;SDS011;2361;49.540;8.390;2023-08-20T08:27:29;8.53;;;4.40;;
4694;SDS011;2361;49.540;8.390;2023-08-20T08:29:57;5.13;;;4.53;;
4694;SDS011;2361;49.540;8.390;2023-08-20T08:32:24;5.50;;;5.10;;
4694;SDS011;2361;49.540;8.390;2023-08-20T08:34:51;9.20;;;5.10;;
4694;SDS011;2361;49.540;8.390;2023-08-20T08:37:18;4.80;;;4.40;;
4694;SDS011;2361;49.540;8.390;2023-08-20T08:39:45;4.33;;;4.03;;
4694;SDS011;2361;49.540;8.390;2023-08-20T08:42:12;5.07;;;4.57;;
4694;SDS011;2361;49.540;8.390;2023-08-20T08:44:40;5.07;;;4.57;;
4694;SDS011;2361;49.540;8.390;2023-08-20T08:47:08;3.20;;;3.00;;
4694;SDS011;2361;49.540;8.390;2023-08-20T08:49:35;4.50;;;4.10;;
4694;SDS011;2361;49.540;8.390;2023-08-20T08:52:03;6.20;;;5.53;;
4694;SDS011;2361;49.540;8.390;2023-08-20T08:54:32;5.00;;;4.40;;
4694;SDS011;2361;49.540;8.390;2023-08-20T08:57:00;4.90;;;4.40;;
4694;SDS011;2361;49.540;8.390;2023-08-20T08:59:27;5.73;;;5.17;;
4694;SDS011;2361;49.540;8.390;2023-08-20T09:01:54;5.53;;;4.43;;
4694;SDS011;2361;49.540;8.390;2023-08-20T09:04:23;5.33;;;4.83;;
4694;SDS011;2361;49.540;8.390;2023-08-20T09:06:50;5.13;;;4.67;;
4694;SDS011;2361;49.540;8.390;2023-08-20T09:09:20;4.53;;;4.23;;
4694;SDS011;2361;49.540;8.390;2023-08-20T09:11:48;5.50;;;4.70;;
4694;SDS011;2361;49.540;8.390;2023-08-20T09:17:00;5.23;;;4.73;;
4694;SDS011;2361;49.540;8.390;2023-08-20T09:19:28;5.03;;;4.63;;
4694;SDS011;2361;49.540;8.390;2023-08-20T09:22:05;4.53;;;4.23;;
4694;SDS011;2361;49.540;8.390;2023-08-20T09:24:33;3.57;;;3.37;;
4694;SDS011;2361;49.540;8.390;2023-08-20T09:27:05;4.93;;;4.53;;
4694;SDS011;2361;49.540;8.390;2023-08-20T09:29:33;4.67;;;4.27;;
4694;SDS011;2361;49.540;8.390;2023-08-20T09:32:15;8.40;;;4.90;;
4694;SDS011;2361;49.540;8.390;2023-08-20T09:34:53;5.37;;;4.83;;
4694;SDS011;2361;49.540;8.390;2023-08-20T09:37:22;4.67;;;4.20;;
4694;SDS011;2361;49.540;8.390;2023-08-20T09:39:50;5.10;;;4.67;;
4694;SDS011;2361;49.540;8.390;2023-08-20T09:42:18;5.27;;;4.77;;
4694;SDS011;2361;49.540;8.390;2023-08-20T09:44:45;5.97;;;5.47;;
4694;SDS011;2361;49.540;8.390;2023-08-20T09:47:16;5.43;;;4.50;;
4694;SDS011;2361;49.540;8.390;2023-08-20T09:49:45;6.03;;;4.63;;
4694;SDS011;2361;49.540;8.390;2023-08-20T09:52:20;4.70;;;4.30;;
4694;SDS011;2361;49.540;8.390;2023-08-20T09:55:00;7.57;;;5.27;;
4694;SDS011;2361;49.540;8.390;2023-08-20T09:57:36;4.90;;;4.47;;
4694;SDS011;2361;49.540;8.390;2023-08-20T10:00:11;5.00;;;4.43;;
4694;SDS011;2361;49.540;8.390;2023-08-20T10:02:42;5.33;;;4.90;;
4694;SDS011;2361;49.540;8.390;2023-08-20T10:05:11;5.77;;;4.83;;
4694;SDS011;2361;49.540;8.390;2023-08-20T10:07:38;5.20;;;4.70;;
4694;SDS011;2361;49.540;8.390;2023-08-20T10:10:06;6.10;;;5.00;;
4694;SDS011;2361;49.540;8.390;2023-08-20T10:12:36;6.03;;;5.00;;
4694;SDS011;2361;49.540;8.390;2023-08-20T10:15:06;3.23;;;2.93;;
4694;SDS011;2361;49.540;8.390;2023-08-20T10:17:36;5.23;;;4.70;;
4694;SDS011;2361;49.540;8.390;2023-08-20T10:20:06;4.53;;;4.13;;
4694;SDS011;2361;49.540;8.390;2023-08-20T10:22:37;6.47;;;4.20;;
4694;SDS011;2361;49.540;8.390;2023-08-20T10:25:10;4.07;;;3.77;;
4694;SDS011;2361;49.540;8.390;2023-08-20T10:27:48;5.00;;;4.60;;
4694;SDS011;2361;49.540;8.390;2023-08-20T10:30:25;5.53;;;4.30;;
4694;SDS011;2361;49.540;8.390;2023-08-20T10:32:56;5.80;;;4.50;;
4694;SDS011;2361;49.540;8.390;2023-08-20T10:38:06;4.40;;;4.10;;
4694;SDS011;2361;49.540;8.390;2023-08-20T10:40:51;4.53;;;4.23;;
4694;SDS011;2361;49.540;8.390;2023-08-20T10:43:32;5.03;;;4.63;;
4694;SDS011;2361;49.540;8.390;2023-08-20T10:48:51;5.60;;;4.50;;
4694;SDS011;2361;49.540;8.390;2023-08-20T10:51:52;6.63;;;4.47;;
4694;SDS011;2361;49.540;8.390;2023-08-20T10:54:22;5.03;;;4.53;;
4694;SDS011;2361;49.540;8.390;2023-08-20T10:56:57;4.10;;;3.80;;
4694;SDS011;2361;49.540;8.390;2023-08-20T10:59:27;5.23;;;4.37;;
4694;SDS011;2361;49.540;8.390;2023-08-20T11:01:57;12.93;;;4.00;;
4694;SDS011;2361;49.540;8.390;2023-08-20T11:04:29;4.30;;;4.00;;
4694;SDS011;2361;49.540;8.390;2023-08-20T11:07:00;12.37;;;4.17;;
4694;SDS011;2361;49.540;8.390;2023-08-20T11:09:29;4.60;;;4.20;;
4694;SDS011;2361;49.540;8.390;2023-08-20T11:11:57;5.23;;;3.93;;
4694;SDS011;2361;49.540;8.390;2023-08-20T11:14:24;4.30;;;4.00;;
4694;SDS011;2361;49.540;8.390;2023-08-20T11:16:52;5.83;;;3.80;;
4694;SDS011;2361;49.540;8.390;2023-08-20T11:19:19;3.87;;;3.57;;
4694;SDS011;2361;49.540;8.390;2023-08-20T11:21:48;4.70;;;3.87;;
4694;SDS011;2361;49.540;8.390;2023-08-20T11:24:16;4.50;;;4.10;;
4694;SDS011;2361;49.540;8.390;2023-08-20T11:26:44;3.63;;;3.33;;
4694;SDS011;2361;49.540;8.390;2023-08-20T11:29:11;4.53;;;4.07;;
4694;SDS011;2361;49.540;8.390;2023-08-20T11:31:45;4.57;;;4.27;;
4694;SDS011;2361;49.540;8.390;2023-08-20T11:34:16;4.17;;;3.73;;
4694;SDS011;2361;49.540;8.390;2023-08-20T11:36:45;5.07;;;4.43;;
4694;SDS011;2361;49.540;8.390;2023-08-20T11:39:12;4.07;;;3.77;;
4694;SDS011;2361;49.540;8.390;2023-08-20T11:41:39;4.60;;;4.20;;
4694;SDS011;2361;49.540;8.390;2023-08-20T11:44:09;4.50;;;4.10;;
4694;SDS011;2361;49.540;8.390;2023-08-20T11:46:43;4.27;;;3.53;;
4694;SDS011;2361;49.540;8.390;2023-08-20T11:49:11;4.70;;;4.30;;
4694;SDS011;2361;49.540;8.390;2023-08-20T11:51:40;5.17;;;4.67;;
4694;SDS011;2361;49.540;8.390;2023-08-20T11:54:16;4.50;;;4.20;;
4694;SDS011;2361;49.540;8.390;2023-08-20T11:56:44;4.83;;;4.13;;
4694;SDS011;2361;49.540;8.390;2023-08-20T11:59:17;4.00;;;3.70;;
4694;SDS011;2361;49.540;8.390;2023-08-20T12:01:50;4.17;;;3.87;;
4694;SDS011;2361;49.540;8.390;2023-08-20T12:04:27;6.93;;;4.67;;
4694;SDS011;2361;49.540;8.390;2023-08-20T12:07:03;6.20;;;4.80;;
4694;SDS011;2361;49.540;8.390;2023-08-20T12:09:35;4.90;;;4.40;;
4694;SDS011;2361;49.540;8.390;2023-08-20T12:12:04;6.73;;;4.60;;
4694;SDS011;2361;49.540;8.390;2023-08-20T12:14:33;4.40;;;4.10;;
4694;SDS011;2361;49.540;8.390;2023-08-20T12:17:02;8.00;;;3.57;;
4694;SDS011;2361;49.540;8.390;2023-08-20T12:19:29;4.90;;;4.40;;
4694;SDS011;2361;49.540;8.390;2023-08-20T12:21:56;7.57;;;4.40;;
4694;SDS011;2361;49.540;8.390;2023-08-20T12:24:23;4.27;;;3.93;;
4694;SDS011;2361;49.540;8.390;2023-08-20T12:26:52;4.43;;;4.03;;
4694;SDS011;2361;49.540;8.390;2023-08-20T12:29:19;3.67;;;3.40;;
4694;SDS011;2361;49.540;8.390;2023-08-20T12:31:46;5.33;;;3.43;;
4694;SDS011;2361;49.540;8.390;2023-08-20T12:34:13;7.40;;;3.47;;
4694;SDS011;2361;49.540;8.390;2023-08-20T12:36:40;3.83;;;3.53;;
4694;SDS011;2361;49.540;8.390;2023-08-20T12:39:07;3.23;;;3.03;;
4694;SDS011;2361;49.540;8.390;2023-08-20T12:41:34;6.80;;;3.07;;
4694;SDS011;2361;49.540;8.390;2023-08-20T12:44:02;3.30;;;3.00;;
4694;SDS011;2361;49.540;8.390;2023-08-20T12:46:30;3.00;;;2.80;;
4694;SDS011;2361;49.540;8.390;2023-08-20T12:48:57;3.50;;;3.20;;
4694;SDS011;2361;49.540;8.390;2023-08-20T12:51:24;3.47;;;3.20;;
4694;SDS011;2361;49.540;8.390;2023-08-20T12:53:51;3.10;;;2.90;;
4694;SDS011;2361;49.540;8.390;2023-08-20T12:56:18;5.47;;;2.97;;
4694;SDS011;2361;49.540;8.390;2023-08-20T12:58:44;5.50;;;4.17;;
4694;SDS011;2361;49.540;8.390;2023-08-20T13:01:11;3.40;;;3.10;;
4694;SDS011;2361;49.540;8.390;2023-08-20T13:03:38;4.17;;;3.37;;
4694;SDS011;2361;49.540;8.390;2023-08-20T13:06:06;3.17;;;2.97;;
4694;SDS011;2361;49.540;8.390;2023-08-20T13:08:33;2.40;;;2.30;;
4694;SDS011;2361;49.540;8.390;2023-08-20T13:11:00;4.03;;;1.80;;
4694;SDS011;2361;49.540;8.390;2023-08-20T13:13:29;2.70;;;2.20;;
4694;SDS011;2361;49.540;8.390;2023-08-20T13:16:00;2.90;;;2.40;;
4694;SDS011;2361;49.540;8.390;2023-08-20T13:18:28;4.40;;;2.43;;
4694;SDS011;2361;49.540;8.390;2023-08-20T13:20:56;1.80;;;1.80;;
4694;SDS011;2361;49.540;8.390;2023-08-20T13:23:23;2.57;;;2.37;;
4694;SDS011;2361;49.540;8.390;2023-08-20T13:25:50;2.20;;;2.00;;
4694;SDS011;2361;49.540;8.390;2023-08-20T13:28:17;2.33;;;2.17;;
4694;SDS011;2361;49.540;8.390;2023-08-20T13:30:44;2.50;;;2.40;;
4694;SDS011;2361;49.540;8.390;2023-08-20T13:33:12;2.37;;;2.17;;
4694;SDS011;2361;49.540;8.390;2023-08-20T13:35:40;1.53;;;1.53;;
4694;SDS011;2361;49.540;8.390;2023-08-20T13:38:08;2.10;;;2.00;;
4694;SDS011;2361;49.540;8.390;2023-08-20T13:40:35;3.63;;;2.30;;
4694;SDS011;2361;49.540;8.390;2023-08-20T13:43:02;3.43;;;2.90;;
4694;SDS011;2361;49.540;8.390;2023-08-20T13:45:29;4.27;;;3.07;;
4694;SDS011;2361;49.540;8.390;2023-08-20T13:47:57;4.17;;;2.60;;
4694;SDS011;2361;49.540;8.390;2023-08-20T13:50:24;2.67;;;2.47;;
4694;SDS011;2361;49.540;8.390;2023-08-20T13:52:51;2.30;;;2.20;;
4694;SDS011;2361;49.540;8.390;2023-08-20T13:55:18;2.60;;;2.27;;
4694;SDS011;2361;49.540;8.390;2023-08-20T13:57:45;2.43;;;2.10;;
4694;SDS011;2361;49.540;8.390;2023-08-20T14:00:12;2.57;;;2.30;;
4694;SDS011;2361;49.540;8.390;2023-08-20T14:02:39;3.70;;;2.67;;
4694;SDS011;2361;49.540;8.390;2023-08-20T14:05:07;2.60;;;2.40;;
4694;SDS011;2361;49.540;8.390;2023-08-20T14:07:34;2.40;;;2.20;;
4694;SDS011;2361;49.540;8.390;2023-08-20T14:10:02;2.73;;;2.63;;
4694;SDS011;2361;49.540;8.390;2023-08-20T14:12:33;3.20;;;2.80;;
4694;SDS011;2361;49.540;8.390;2023-08-20T14:15:03;2.90;;;2.70;;
4694;SDS011;2361;49.540;8.390;2023-08-20T14:17:31;2.73;;;2.43;;
4694;SDS011;2361;49.540;8.390;2023-08-20T14:19:58;3.00;;;2.80;;
4694;SDS011;2361;49.540;8.390;2023-08-20T14:22:25;3.17;;;2.97;;
4694;SDS011;2361;49.540;8.390;2023-08-20T14:24:52;2.90;;;2.70;;
4694;SDS011;2361;49.540;8.390;2023-08-20T14:27:21;5.97;;;3.27;;
4694;SDS011;2361;49.540;8.390;2023-08-20T14:29:49;2.87;;;2.63;;
4694;SDS011;2361;49.540;8.390;2023-08-20T14:32:16;3.23;;;2.60;;
4694;SDS011;2361;49.540;8.390;2023-08-20T14:34:43;3.03;;;2.77;;
4694;SDS011;2361;49.540;8.390;2023-08-20T14:37:10;3.80;;;3.50;;
4694;SDS011;2361;49.540;8.390;2023-08-20T14:39:39;2.97;;;2.77;;
4694;SDS011;2361;49.540;8.390;2023-08-20T14:42:07;3.60;;;3.27;;
4694;SDS011;2361;49.540;8.390;2023-08-20T14:44:34;3.83;;;3.53;;
4694;SDS011;2361;49.540;8.390;2023-08-20T14:47:01;3.80;;;3.50;;
4694;SDS011;2361;49.540;8.390;2023-08-20T14:49:30;3.37;;;3.07;;
4694;SDS011;2361;49.540;8.390;2023-08-20T14:51:58;3.83;;;3.47;;
4694;SDS011;2361;49.540;8.390;2023-08-20T14:54:44;4.20;;;3.40;;
4694;SDS011;2361;49.540;8.390;2023-08-20T14:57:11;3.23;;;3.03;;
4694;SDS011;2361;49.540;8.390;2023-08-20T14:59:37;4.27;;;3.87;;
4694;SDS011;2361;49.540;8.390;2023-08-20T15:02:05;3.43;;;3.20;;
4694;SDS011;2361;49.540;8.390;2023-08-20T15:04:32;4.00;;;3.60;;
4694;SDS011;2361;49.540;8.390;2023-08-20T15:06:58;3.57;;;3.27;;
4694;SDS011;2361;49.540;8.390;2023-08-20T15:09:25;4.37;;;3.03;;
4694;SDS011;2361;49.540;8.390;2023-08-20T15:11:52;6.63;;;3.30;;
4694;SDS011;2361;49.540;8.390;2023-08-20T15:14:19;4.27;;;3.20;;
4694;SDS011;2361;49.540;8.390;2023-08-20T15:16:47;3.17;;;2.97;;
4694;SDS011;2361;49.540;8.390;2023-08-20T15:19:14;2.87;;;2.63;;
4694;SDS011;2361;49.540;8.390;2023-08-20T15:21:41;2.77;;;2.57;;
4694;SDS011;2361;49.540;8.390;2023-08-20T15:24:11;3.53;;;3.20;;
4694;SDS011;2361;49.540;8.390;2023-08-20T15:26:38;3.13;;;2.93;;
4694;SDS011;2361;49.540;8.390;2023-08-20T15:29:05;5.53;;;3.30;;
4694;SDS011;2361;49.540;8.390;2023-08-20T15:31:32;3.40;;;3.00;;
4694;SDS011;2361;49.540;8.390;2023-08-20T15:34:00;3.30;;;3.10;;
4694;SDS011;2361;49.540;8.390;2023-08-20T15:36:27;3.10;;;2.70;;